createdAt,value
2023-02-19T00:03:55.106Z,1.40
2023-02-19T00:08:12.216Z,2.00
2023-02-19T00:12:29.328Z,1.30
2023-02-19T00:16:46.845Z,3.40
2023-02-19T00:21:04.612Z,3.60
2023-02-19T00:25:21.714Z,1.80
2023-02-19T00:29:38.879Z,1.85
2023-02-19T00:33:58.365Z,2.88
2023-02-19T00:38:15.458Z,1.77
2023-02-19T00:42:32.548Z,2.58
2023-02-19T00:46:49.737Z,1.67
2023-02-19T00:51:06.848Z,2.35
2023-02-19T00:55:24.022Z,3.60
2023-02-19T00:59:41.126Z,3.05
2023-02-19T01:03:58.298Z,3.67
2023-02-19T01:08:15.503Z,9.43
2023-02-19T01:12:32.894Z,4.60
2023-02-19T01:16:49.996Z,5.68
2023-02-19T01:21:09.577Z,5.50
2023-02-19T01:25:26.913Z,3.55
2023-02-19T01:29:44.062Z,3.40
2023-02-19T01:34:02.878Z,6.15
2023-02-19T01:38:19.998Z,2.67
2023-02-19T01:42:37.238Z,3.42
2023-02-19T01:46:57.552Z,3.10
2023-02-19T01:51:20.073Z,3.80
2023-02-19T01:55:37.550Z,2.30
2023-02-19T02:00:01.717Z,3.22
2023-02-19T02:04:19.219Z,2.45
2023-02-19T02:08:55.207Z,1.88
2023-02-19T02:13:12.428Z,3.45
2023-02-19T02:17:43.022Z,2.28
2023-02-19T02:22:09.125Z,2.92
2023-02-19T02:27:02.792Z,2.20
2023-02-19T02:31:28.645Z,2.30
2023-02-19T02:35:56.546Z,2.28
2023-02-19T02:40:13.808Z,2.28
2023-02-19T02:44:36.036Z,2.40
2023-02-19T02:49:02.080Z,3.65
2023-02-19T02:53:46.956Z,3.88
2023-02-19T02:58:05.195Z,3.85
2023-02-19T03:02:28.393Z,2.83
2023-02-19T03:06:47.672Z,4.80
2023-02-19T03:11:27.335Z,2.50
2023-02-19T03:16:27.181Z,2.95
2023-02-19T03:20:47.103Z,2.85
2023-02-19T03:25:44.931Z,3.60
2023-02-19T03:30:08.308Z,3.67
2023-02-19T03:34:37.401Z,2.30
2023-02-19T03:43:37.463Z,2.60
2023-02-19T03:48:20.082Z,3.30
2023-02-19T03:52:55.798Z,3.58
2023-02-19T03:57:29.904Z,2.28
2023-02-19T04:01:52.319Z,2.25
2023-02-19T04:06:22.255Z,2.63
2023-02-19T04:10:40.486Z,2.08
2023-02-19T04:15:06.947Z,2.05
2023-02-19T04:19:26.527Z,1.83
2023-02-19T04:23:45.608Z,2.83
2023-02-19T04:28:03.291Z,2.10
2023-02-19T04:32:20.732Z,1.90
2023-02-19T04:36:37.830Z,2.30
2023-02-19T04:40:54.964Z,1.80
2023-02-19T04:45:12.186Z,4.00
2023-02-19T04:49:29.434Z,2.13
2023-02-19T04:53:46.560Z,1.80
2023-02-19T04:58:03.704Z,2.20
2023-02-19T05:02:20.811Z,2.70
2023-02-19T05:06:37.919Z,1.63
2023-02-19T05:10:59.058Z,2.63
2023-02-19T05:15:16.273Z,1.52
2023-02-19T05:19:33.399Z,1.58
2023-02-19T05:23:50.538Z,3.20
2023-02-19T05:28:17.048Z,1.25
2023-02-19T05:32:35.906Z,2.50
2023-02-19T05:36:53.973Z,1.60
2023-02-19T05:41:13.924Z,1.75
2023-02-19T05:45:31.672Z,2.75
2023-02-19T05:49:48.764Z,1.50
2023-02-19T05:54:06.004Z,1.63
2023-02-19T05:58:23.306Z,2.22
2023-02-19T06:02:40.516Z,2.65
2023-02-19T06:06:57.674Z,2.67
2023-02-19T06:11:14.761Z,5.07
2023-02-19T06:15:32.441Z,2.75
2023-02-19T06:19:49.616Z,4.10
2023-02-19T06:24:08.535Z,4.20
2023-02-19T06:28:25.681Z,3.10
2023-02-19T06:32:42.808Z,3.38
2023-02-19T06:37:00.294Z,2.72
2023-02-19T06:41:17.827Z,2.28
2023-02-19T06:45:35.270Z,1.30
2023-02-19T06:49:52.389Z,2.38
2023-02-19T06:54:09.726Z,1.83
2023-02-19T06:58:27.245Z,2.70
2023-02-19T07:02:44.501Z,1.15
2023-02-19T07:07:01.665Z,0.90
2023-02-19T07:11:19.076Z,1.10
2023-02-19T07:15:36.166Z,1.30
2023-02-19T07:19:53.282Z,0.90
2023-02-19T07:24:10.691Z,0.93
2023-02-19T07:28:28.173Z,1.92
2023-02-19T07:32:45.567Z,1.70
2023-02-19T07:37:02.903Z,0.65
2023-02-19T07:41:19.993Z,1.05
2023-02-19T07:45:37.104Z,0.55
2023-02-19T07:49:54.301Z,0.50
2023-02-19T07:54:11.632Z,2.20
2023-02-19T07:58:29.437Z,0.40
2023-02-19T08:03:02.985Z,1.97
2023-02-19T08:07:20.100Z,1.00
2023-02-19T08:11:56.220Z,1.00
2023-02-19T08:16:26.676Z,1.10
2023-02-19T08:20:50.666Z,0.90
2023-02-19T08:25:08.244Z,1.02
2023-02-19T08:29:25.399Z,1.23
2023-02-19T08:33:42.500Z,0.57
2023-02-19T08:37:59.811Z,1.05
2023-02-19T08:42:16.961Z,1.73
2023-02-19T08:46:34.639Z,4.72
2023-02-19T08:50:59.945Z,3.83
2023-02-19T08:55:17.622Z,5.78
2023-02-19T08:59:34.876Z,4.43
2023-02-19T09:03:53.338Z,6.05
2023-02-19T09:08:11.134Z,4.00
2023-02-19T09:12:28.289Z,3.27
2023-02-19T09:16:45.406Z,2.35
2023-02-19T09:21:04.611Z,4.50
2023-02-19T09:25:21.778Z,7.32
2023-02-19T09:29:38.993Z,3.85
2023-02-19T09:33:56.461Z,3.90
2023-02-19T09:38:13.704Z,2.95
2023-02-19T09:42:32.826Z,4.82
2023-02-19T09:46:52.106Z,5.72
2023-02-19T09:51:10.865Z,4.10
2023-02-19T09:55:34.470Z,6.28
2023-02-19T10:00:02.854Z,7.57
2023-02-19T10:04:19.961Z,6.43
2023-02-19T10:08:38.294Z,9.98
2023-02-19T10:13:00.045Z,7.30
2023-02-19T10:17:26.618Z,5.47
2023-02-19T10:21:44.575Z,3.85
2023-02-19T10:26:01.783Z,7.75
2023-02-19T10:30:25.011Z,10.65
2023-02-19T10:34:42.314Z,6.70
2023-02-19T10:39:01.167Z,17.25
2023-02-19T10:43:31.572Z,10.40
2023-02-19T10:47:49.712Z,12.32
2023-02-19T10:52:23.478Z,6.80
2023-02-19T10:56:42.049Z,13.02
2023-02-19T11:05:27.054Z,5.68
2023-02-19T11:09:46.287Z,7.15
2023-02-19T11:14:17.384Z,11.93
2023-02-19T11:18:36.237Z,6.60
2023-02-19T11:23:00.588Z,6.72
2023-02-19T11:27:25.103Z,6.50
2023-02-19T11:31:42.284Z,6.65
2023-02-19T11:36:17.799Z,6.65
2023-02-19T11:40:44.004Z,8.10
2023-02-19T11:45:19.361Z,6.80
2023-02-19T11:49:52.636Z,6.45
2023-02-19T11:54:29.189Z,5.35
2023-02-19T11:58:58.993Z,6.43
2023-02-19T12:03:41.676Z,8.60
2023-02-19T12:08:26.517Z,4.50
2023-02-19T12:13:14.397Z,4.07
2023-02-19T12:17:50.388Z,4.45
2023-02-19T12:22:29.946Z,2.70
2023-02-19T12:27:22.425Z,3.08
2023-02-19T12:32:03.564Z,3.65
2023-02-19T12:36:30.010Z,2.35
2023-02-19T12:41:03.340Z,3.20
2023-02-19T12:45:49.997Z,4.20
2023-02-19T12:50:13.294Z,4.72
2023-02-19T12:54:38.159Z,7.60
2023-02-19T12:59:02.427Z,2.03
2023-02-19T13:03:44.370Z,4.82
2023-02-19T13:08:07.713Z,4.00
2023-02-19T13:12:29.024Z,3.05
2023-02-19T13:16:50.818Z,1.73
2023-02-19T13:21:08.858Z,3.97
2023-02-19T13:25:44.116Z,5.03
2023-02-19T13:30:32.324Z,4.93
2023-02-19T13:35:04.670Z,3.67
2023-02-19T13:39:22.856Z,6.18
2023-02-19T13:43:42.818Z,4.45
2023-02-19T13:48:12.397Z,5.18
2023-02-19T13:52:29.497Z,6.75
2023-02-19T13:56:46.754Z,5.22
2023-02-19T14:01:05.636Z,6.35
2023-02-19T14:06:02.580Z,11.13
2023-02-19T14:10:57.778Z,7.57
2023-02-19T14:15:43.497Z,6.22
2023-02-19T14:20:12.335Z,6.95
2023-02-19T14:28:48.489Z,8.75
2023-02-19T14:33:11.442Z,8.10
2023-02-19T14:37:28.766Z,5.65
2023-02-19T14:42:05.500Z,12.15
2023-02-19T14:46:37.176Z,4.75
2023-02-19T14:51:04.737Z,5.32
2023-02-19T14:55:32.829Z,8.98
2023-02-19T14:59:55.589Z,3.53
2023-02-19T15:04:24.627Z,5.65
2023-02-19T15:08:48.272Z,5.85
2023-02-19T15:13:08.423Z,10.13
2023-02-19T15:17:29.178Z,2.58
2023-02-19T15:21:48.329Z,3.97
2023-02-19T15:26:14.441Z,5.18
2023-02-19T15:30:31.652Z,4.05
2023-02-19T15:34:57.396Z,2.35
2023-02-19T15:39:24.130Z,4.95
2023-02-19T15:43:50.676Z,2.58
2023-02-19T15:48:15.269Z,4.60
2023-02-19T15:52:41.735Z,7.10
2023-02-19T15:57:05.337Z,4.50
2023-02-19T16:01:25.283Z,4.13
2023-02-19T16:05:42.887Z,5.30
2023-02-19T16:10:18.756Z,6.90
2023-02-19T16:14:37.421Z,10.80
2023-02-19T16:18:54.669Z,8.63
2023-02-19T16:23:15.480Z,9.15
2023-02-19T16:27:35.884Z,9.23
2023-02-19T16:31:59.685Z,9.70
2023-02-19T16:36:26.359Z,10.52
2023-02-19T16:40:50.857Z,12.15
2023-02-19T16:45:08.470Z,14.20
2023-02-19T16:49:25.630Z,22.48
2023-02-19T16:53:42.750Z,15.77
2023-02-19T16:58:00.396Z,16.33
2023-02-19T17:02:21.692Z,13.77
2023-02-19T17:06:39.407Z,16.88
2023-02-19T17:10:57.059Z,32.47
2023-02-19T17:15:14.341Z,36.45
2023-02-19T17:19:31.574Z,46.60
2023-02-19T17:23:49.234Z,47.63
2023-02-19T17:28:06.400Z,39.53
2023-02-19T17:32:23.782Z,13.55
2023-02-19T17:36:43.096Z,20.92
2023-02-19T17:41:00.217Z,18.48
2023-02-19T17:45:17.419Z,21.80
2023-02-19T17:49:35.186Z,21.33
2023-02-19T17:53:52.350Z,22.58
2023-02-19T17:58:09.444Z,20.08
2023-02-19T18:02:26.604Z,17.63
2023-02-19T18:06:47.518Z,10.98
2023-02-19T18:11:07.053Z,14.82
2023-02-19T18:15:26.873Z,13.85
2023-02-19T18:19:45.267Z,15.40
2023-02-19T18:24:02.427Z,20.73
2023-02-19T18:28:19.599Z,13.35
2023-02-19T18:32:37.068Z,15.48
2023-02-19T18:36:54.234Z,19.77
2023-02-19T18:41:13.236Z,17.75
2023-02-19T18:45:35.373Z,18.00
2023-02-19T18:49:54.661Z,19.50
2023-02-19T18:54:11.953Z,19.45
2023-02-19T19:02:50.503Z,24.83
2023-02-19T19:07:09.638Z,20.20
2023-02-19T19:11:26.762Z,19.13
2023-02-19T19:15:48.892Z,26.50
2023-02-19T19:20:07.249Z,27.52
2023-02-19T19:28:44.489Z,25.55
2023-02-19T19:33:03.477Z,24.48
2023-02-19T19:37:20.853Z,25.85
2023-02-19T19:41:38.195Z,24.07
2023-02-19T19:45:56.047Z,21.67
2023-02-19T19:50:14.426Z,25.20
2023-02-19T19:54:31.684Z,30.75
2023-02-19T19:58:48.853Z,26.67
2023-02-19T20:03:06.900Z,31.95
2023-02-19T20:07:24.101Z,39.30
2023-02-19T20:11:46.358Z,77.75
2023-02-19T20:16:03.774Z,47.20
2023-02-19T20:20:22.605Z,52.47
2023-02-19T20:24:39.832Z,53.20
2023-02-19T20:28:57.522Z,62.15
2023-02-19T20:33:14.743Z,65.18
2023-02-19T20:37:31.904Z,42.72
2023-02-19T20:41:51.793Z,39.17
2023-02-19T20:46:09.056Z,34.25
2023-02-19T20:50:26.488Z,34.13
2023-02-19T20:54:44.418Z,29.08
2023-02-19T20:59:01.553Z,28.35
2023-02-19T21:03:18.728Z,26.17
2023-02-19T21:07:35.846Z,22.48
2023-02-19T21:11:53.124Z,20.75
2023-02-19T21:16:10.478Z,21.45
2023-02-19T21:20:28.034Z,26.20
2023-02-19T21:24:49.451Z,21.08
2023-02-19T21:29:08.126Z,23.23
2023-02-19T21:33:25.232Z,23.98
2023-02-19T21:37:43.621Z,22.33
2023-02-19T21:42:00.746Z,20.98
2023-02-19T21:46:18.784Z,18.40
2023-02-19T21:50:35.908Z,20.52
2023-02-19T21:54:53.390Z,18.08
2023-02-19T21:59:10.665Z,19.98
2023-02-19T22:03:27.834Z,23.80
2023-02-19T22:07:44.965Z,22.90
2023-02-19T22:12:02.102Z,23.80
2023-02-19T22:16:19.664Z,19.45
2023-02-19T22:20:38.422Z,22.65
2023-02-19T22:24:55.516Z,20.00
2023-02-19T22:29:15.138Z,26.83
2023-02-19T22:33:32.370Z,23.52
2023-02-19T22:37:49.440Z,25.73
2023-02-19T22:42:06.622Z,23.45
2023-02-19T22:46:26.088Z,24.48
2023-02-19T22:50:43.236Z,27.85
2023-02-19T22:55:00.597Z,30.42
2023-02-19T22:59:17.695Z,22.30
2023-02-19T23:03:34.814Z,27.63
2023-02-19T23:07:51.915Z,24.67
2023-02-19T23:12:11.150Z,32.15
2023-02-19T23:16:28.852Z,33.40
2023-02-19T23:20:45.994Z,28.23
2023-02-19T23:25:03.437Z,28.88
2023-02-19T23:29:25.624Z,28.38
2023-02-19T23:33:43.457Z,33.92
2023-02-19T23:38:01.321Z,31.33
2023-02-19T23:42:18.458Z,29.63
2023-02-19T23:46:35.666Z,24.60
2023-02-19T23:50:52.775Z,34.15
2023-02-19T23:55:10.039Z,28.15
2023-02-19T23:59:27.201Z,25.58
